ěÝzenÝ letovÚho provozu ╚eskÚ republiky
Letiste: LKTB Aktualizace: 23.11.2020 18:30:24  UTC
 METAR LKTB 23.11. 18:30 ...
METAR LKTB 231830Z 27005KT 0150 R27/0400N FG OVC001 03/02 Q1029 NOSIG RMK REG QNH 1026=
 TAF LKTB 23.11. 17:00 AAA
TAF AMD LKTB 231813Z 2318/2500 VRB02KT 0700 FG OVC002      TEMPO 2318/2409 0200 FZFG VV001      TEMPO 2409/2416 1500 BR SCT010=